createdAt,value
2019-05-17T00:00:47.453Z,0.00
2019-05-17T00:01:46.921Z,0.00
2019-05-17T00:02:46.572Z,0.00
2019-05-17T00:03:47.086Z,0.00
2019-05-17T00:04:46.985Z,0.00
2019-05-17T00:05:46.605Z,0.00
2019-05-17T00:06:47.682Z,0.00
2019-05-17T00:07:47.551Z,0.00
2019-05-17T00:08:47.257Z,0.00
2019-05-17T00:09:47.710Z,0.00
2019-05-17T00:10:46.517Z,0.00
2019-05-17T00:11:47.306Z,0.00
2019-05-17T00:12:47.130Z,0.00
2019-05-17T00:13:46.600Z,0.00
2019-05-17T00:14:47.277Z,0.00
2019-05-17T00:15:47.402Z,0.00
2019-05-17T00:16:46.928Z,0.00
2019-05-17T00:17:46.861Z,0.00
2019-05-17T00:18:46.356Z,0.00
2019-05-17T00:19:46.458Z,0.00
2019-05-17T00:20:46.540Z,0.00
2019-05-17T00:21:47.562Z,0.00
2019-05-17T00:22:47.196Z,0.00
2019-05-17T00:23:47.006Z,0.00
2019-05-17T00:24:47.727Z,0.00
2019-05-17T00:25:46.993Z,0.00
2019-05-17T00:26:46.701Z,0.00
2019-05-17T00:27:47.357Z,0.00
2019-05-17T00:28:46.933Z,0.00
2019-05-17T00:29:46.509Z,0.00
2019-05-17T00:30:46.572Z,0.00
2019-05-17T00:31:46.221Z,0.00
2019-05-17T00:32:47.612Z,0.00
2019-05-17T00:33:47.101Z,0.00
2019-05-17T00:34:46.999Z,0.00
2019-05-17T00:35:46.902Z,0.00
2019-05-17T00:36:46.961Z,0.00
2019-05-17T00:37:46.574Z,0.00
2019-05-17T00:38:51.238Z,0.00
2019-05-17T00:39:47.163Z,0.00
2019-05-17T00:40:47.046Z,0.00
2019-05-17T00:41:46.989Z,0.00
2019-05-17T00:42:46.762Z,0.00
2019-05-17T00:43:46.308Z,0.00
2019-05-17T00:44:47.359Z,0.00
2019-05-17T00:45:46.855Z,0.00
2019-05-17T00:46:46.741Z,0.00
2019-05-17T00:47:46.833Z,0.00
2019-05-17T00:48:46.659Z,0.00
2019-05-17T00:49:46.535Z,0.00
2019-05-17T00:50:52.312Z,0.00
2019-05-17T00:51:47.480Z,0.00
2019-05-17T00:52:47.546Z,0.00
2019-05-17T00:53:46.803Z,0.00
2019-05-17T00:54:46.882Z,0.00
2019-05-17T00:55:46.748Z,0.00
2019-05-17T00:56:46.501Z,0.00
2019-05-17T00:57:47.480Z,0.00
2019-05-17T00:58:47.743Z,0.00
2019-05-17T00:59:47.605Z,0.00
2019-05-17T01:00:47.846Z,0.00
2019-05-17T01:01:46.967Z,0.00
2019-05-17T01:02:46.986Z,0.00
2019-05-17T01:03:47.694Z,0.00
2019-05-17T01:04:47.603Z,0.00
2019-05-17T01:05:47.318Z,0.00
2019-05-17T01:06:47.012Z,0.00
2019-05-17T01:07:47.256Z,0.00
2019-05-17T01:08:59.384Z,0.00
2019-05-17T01:09:47.257Z,0.00
2019-05-17T01:10:47.409Z,0.00
2019-05-17T01:11:47.366Z,0.00
2019-05-17T01:12:48.189Z,0.00
2019-05-17T01:13:46.810Z,0.00
2019-05-17T01:14:46.809Z,0.00
2019-05-17T01:15:47.433Z,0.00
2019-05-17T01:16:47.459Z,0.00
2019-05-17T01:17:47.472Z,0.00
2019-05-17T01:18:47.080Z,0.00
2019-05-17T01:19:47.326Z,0.00
2019-05-17T01:20:47.456Z,0.00
2019-05-17T01:21:47.450Z,0.00
2019-05-17T01:22:47.501Z,0.00
2019-05-17T01:23:46.931Z,0.00
2019-05-17T01:24:46.945Z,0.00
2019-05-17T01:25:48.152Z,0.00
2019-05-17T01:26:47.089Z,0.00
2019-05-17T01:27:47.414Z,0.00
2019-05-17T01:28:47.008Z,0.00
2019-05-17T01:29:47.025Z,0.00
2019-05-17T01:30:47.044Z,0.00
2019-05-17T01:31:47.060Z,0.00
2019-05-17T01:32:47.083Z,0.00
2019-05-17T01:33:47.321Z,0.00
2019-05-17T01:34:47.175Z,0.00
2019-05-17T01:35:47.133Z,0.00
2019-05-17T01:36:47.138Z,0.00
2019-05-17T01:37:47.595Z,0.00
2019-05-17T01:38:47.182Z,0.00
2019-05-17T01:39:47.188Z,0.00
2019-05-17T01:40:47.206Z,0.00
2019-05-17T01:41:47.223Z,0.00
2019-05-17T01:42:47.236Z,0.00
2019-05-17T01:43:47.540Z,0.00
2019-05-17T01:44:47.383Z,0.00
2019-05-17T01:45:48.055Z,0.00
2019-05-17T01:46:47.305Z,0.00
2019-05-17T01:47:47.652Z,0.00
2019-05-17T01:48:47.340Z,0.00
2019-05-17T01:49:47.357Z,0.00
2019-05-17T01:50:47.368Z,0.00
2019-05-17T01:51:47.384Z,0.00
2019-05-17T01:52:47.402Z,0.00
2019-05-17T01:53:47.415Z,0.00
2019-05-17T01:54:47.432Z,0.00
2019-05-17T01:55:47.448Z,0.00
2019-05-17T01:56:47.461Z,0.00
2019-05-17T01:57:47.773Z,0.00
2019-05-17T01:58:47.496Z,0.00
2019-05-17T01:59:47.519Z,0.00
2019-05-17T02:00:47.534Z,0.00
2019-05-17T02:01:47.551Z,0.00
2019-05-17T02:02:47.564Z,0.00
2019-05-17T02:03:47.582Z,0.00
2019-05-17T02:04:47.597Z,0.00
2019-05-17T02:05:47.623Z,0.00
2019-05-17T02:06:47.628Z,0.00
2019-05-17T02:07:47.647Z,0.00
2019-05-17T02:08:47.687Z,0.00
2019-05-17T02:09:47.829Z,0.00
2019-05-17T02:10:47.690Z,0.00
2019-05-17T02:11:47.713Z,0.00
2019-05-17T02:12:48.985Z,0.00
2019-05-17T02:13:47.739Z,0.00
2019-05-17T02:14:47.755Z,0.00
2019-05-17T02:15:47.773Z,0.00
2019-05-17T02:16:47.868Z,0.00
2019-05-17T02:17:47.828Z,0.00
2019-05-17T02:18:47.823Z,0.00
2019-05-17T02:19:47.839Z,0.00
2019-05-17T02:20:47.852Z,0.00
2019-05-17T02:21:48.049Z,0.00
2019-05-17T02:22:47.887Z,0.00
2019-05-17T02:23:47.931Z,0.00
2019-05-17T02:24:47.920Z,0.00
2019-05-17T02:25:47.935Z,0.00
2019-05-17T02:26:47.951Z,0.00
2019-05-17T02:27:48.008Z,0.00
2019-05-17T02:28:47.983Z,0.00
2019-05-17T02:29:48.010Z,0.00
2019-05-17T02:30:48.017Z,0.00
2019-05-17T02:31:48.038Z,0.00
2019-05-17T02:32:48.050Z,0.00
2019-05-17T02:33:48.066Z,0.00
2019-05-17T02:34:48.093Z,0.00
2019-05-17T02:35:48.101Z,0.00
2019-05-17T02:36:48.115Z,0.00
2019-05-17T02:37:48.135Z,0.00
2019-05-17T02:38:48.149Z,0.00
2019-05-17T02:39:58.113Z,0.00
2019-05-17T02:40:48.182Z,0.00
2019-05-17T02:41:48.196Z,0.00
2019-05-17T02:42:48.227Z,0.00
2019-05-17T02:43:48.230Z,0.00
2019-05-17T02:44:48.245Z,0.00
2019-05-17T02:45:48.263Z,0.00
2019-05-17T02:46:48.284Z,4.00
2019-05-17T02:47:48.299Z,4.00
2019-05-17T02:48:48.311Z,4.00
2019-05-17T02:49:48.331Z,4.00
2019-05-17T02:50:48.425Z,4.00
2019-05-17T02:51:48.369Z,4.00
2019-05-17T02:52:48.376Z,4.00
2019-05-17T02:53:48.396Z,4.00
2019-05-17T02:54:48.412Z,4.00
2019-05-17T02:55:48.424Z,0.00
2019-05-17T02:56:48.450Z,0.00
2019-05-17T02:57:48.460Z,4.00
2019-05-17T02:58:48.482Z,4.00
2019-05-17T02:59:48.494Z,4.00
2019-05-17T03:00:48.509Z,4.00
2019-05-17T03:01:48.524Z,8.00
2019-05-17T03:02:48.548Z,4.00
2019-05-17T03:03:48.558Z,8.00
2019-05-17T03:04:48.574Z,8.00
2019-05-17T03:05:48.589Z,8.00
2019-05-17T03:06:48.634Z,12.00
2019-05-17T03:07:48.622Z,12.00
2019-05-17T03:08:48.643Z,12.00
2019-05-17T03:09:48.654Z,16.00
2019-05-17T03:10:48.678Z,16.00
2019-05-17T03:11:48.698Z,16.00
2019-05-17T03:12:48.720Z,20.00
2019-05-17T03:13:48.719Z,24.00
2019-05-17T03:14:48.741Z,24.00
2019-05-17T03:15:48.752Z,28.00
2019-05-17T03:16:48.767Z,24.00
2019-05-17T03:17:48.788Z,28.00
2019-05-17T03:18:48.810Z,32.00
2019-05-17T03:19:48.820Z,32.00
2019-05-17T03:20:48.841Z,32.00
2019-05-17T03:21:48.857Z,36.00
2019-05-17T03:22:48.872Z,36.00
2019-05-17T03:23:48.894Z,40.00
2019-05-17T03:24:48.897Z,44.00
2019-05-17T03:25:48.918Z,48.00
2019-05-17T03:26:52.375Z,48.00
2019-05-17T03:27:48.951Z,56.00
2019-05-17T03:28:48.966Z,60.00
2019-05-17T03:29:48.983Z,56.00
2019-05-17T03:30:49.019Z,56.00
2019-05-17T03:31:57.319Z,60.00
2019-05-17T03:32:49.383Z,68.00
2019-05-17T03:33:55.121Z,80.00
2019-05-17T03:34:55.289Z,96.00
2019-05-17T03:35:49.079Z,100.00
2019-05-17T03:36:49.098Z,100.00
2019-05-17T03:37:49.110Z,104.00
2019-05-17T03:38:49.128Z,108.00
2019-05-17T03:39:49.145Z,108.00
2019-05-17T03:41:17.689Z,124.00
2019-05-17T03:41:49.175Z,140.00
2019-05-17T03:42:49.200Z,144.00
2019-05-17T03:43:49.219Z,160.00
2019-05-17T03:44:49.224Z,172.00
2019-05-17T03:45:49.238Z,188.00
2019-05-17T03:46:49.259Z,204.00
2019-05-17T03:47:49.274Z,208.00
2019-05-17T03:48:49.293Z,224.00
2019-05-17T03:49:49.375Z,232.00
2019-05-17T03:50:49.319Z,240.00
2019-05-17T03:51:49.338Z,252.00
2019-05-17T03:52:49.351Z,268.00
2019-05-17T03:53:49.372Z,300.00
2019-05-17T03:54:52.820Z,328.00
2019-05-17T03:55:49.519Z,344.00
2019-05-17T03:56:49.421Z,356.00
2019-05-17T03:57:52.995Z,352.00
2019-05-17T03:58:52.800Z,368.00
2019-05-17T03:59:52.273Z,376.00
2019-05-17T04:00:49.488Z,376.00
2019-05-17T04:01:52.497Z,380.00
2019-05-17T04:02:49.512Z,400.00
2019-05-17T04:03:49.539Z,396.00
2019-05-17T04:04:52.690Z,376.00
2019-05-17T04:05:52.666Z,344.00
2019-05-17T04:06:52.409Z,336.00
2019-05-17T04:07:49.599Z,344.00
2019-05-17T04:08:52.624Z,380.00
2019-05-17T04:09:52.969Z,404.00
2019-05-17T04:10:52.703Z,420.00
2019-05-17T04:11:49.659Z,436.00
2019-05-17T04:12:52.725Z,456.00
2019-05-17T04:13:49.686Z,488.00
2019-05-17T04:14:53.056Z,548.00
2019-05-17T04:15:52.776Z,588.00
2019-05-17T04:16:49.736Z,620.00
2019-05-17T04:17:52.709Z,628.00
2019-05-17T04:18:49.772Z,628.00
2019-05-17T04:19:52.983Z,604.00
2019-05-17T04:20:52.706Z,568.00
2019-05-17T04:21:49.817Z,544.00
2019-05-17T04:22:52.555Z,548.00
2019-05-17T04:23:49.849Z,548.00
2019-05-17T04:24:52.334Z,564.00
2019-05-17T04:25:52.386Z,600.00
2019-05-17T04:26:52.420Z,636.00
2019-05-17T04:27:53.388Z,664.00
2019-05-17T04:28:52.967Z,716.00
2019-05-17T04:29:53.025Z,724.00
2019-05-17T04:30:52.637Z,728.00
2019-05-17T04:31:49.978Z,720.00
2019-05-17T04:32:52.676Z,668.00
2019-05-17T04:33:53.338Z,608.00
2019-05-17T04:34:52.606Z,580.00
2019-05-17T04:35:53.797Z,588.00
2019-05-17T04:36:52.227Z,680.00
2019-05-17T04:37:52.976Z,776.00
2019-05-17T04:38:52.635Z,864.00
2019-05-17T04:39:52.517Z,1040.00
2019-05-17T04:40:53.452Z,1232.00
2019-05-17T04:41:54.371Z,1592.00
2019-05-17T04:42:52.656Z,2048.00
2019-05-17T04:43:52.902Z,2416.00
2019-05-17T04:44:52.741Z,2696.00
2019-05-17T04:45:53.201Z,2864.00
2019-05-17T04:46:53.357Z,3044.00
2019-05-17T04:47:52.680Z,3136.00
2019-05-17T04:48:53.331Z,2972.00
2019-05-17T04:49:53.292Z,2860.00
2019-05-17T04:50:53.318Z,2768.00
2019-05-17T04:51:52.560Z,2644.00
2019-05-17T04:52:53.454Z,2648.00
2019-05-17T04:53:52.975Z,2724.00
2019-05-17T04:54:53.434Z,2720.00
2019-05-17T04:55:53.771Z,2764.00
2019-05-17T04:56:53.085Z,2880.00
2019-05-17T04:57:53.022Z,2888.00
2019-05-17T04:58:54.143Z,2736.00
2019-05-17T04:59:52.348Z,2604.00
2019-05-17T05:00:53.316Z,2408.00
2019-05-17T05:01:53.543Z,2088.00
2019-05-17T05:02:52.709Z,1676.00
2019-05-17T05:03:52.478Z,1432.00
2019-05-17T05:04:53.176Z,1328.00
2019-05-17T05:05:53.528Z,1340.00
2019-05-17T05:06:52.478Z,1420.00
2019-05-17T05:07:53.237Z,1540.00
2019-05-17T05:08:52.881Z,1728.00
2019-05-17T05:09:52.314Z,1920.00
2019-05-17T05:10:53.556Z,2280.00
2019-05-17T05:12:00.365Z,2340.00
2019-05-17T05:12:52.441Z,2220.00
2019-05-17T05:13:53.114Z,2216.00
2019-05-17T05:14:52.333Z,2192.00
2019-05-17T05:15:52.169Z,2176.00
2019-05-17T05:16:52.904Z,2160.00
2019-05-17T05:17:52.722Z,2132.00
2019-05-17T05:18:52.107Z,2068.00
2019-05-17T05:19:53.035Z,1964.00
2019-05-17T05:20:52.629Z,1900.00
2019-05-17T05:21:52.030Z,1808.00
2019-05-17T05:22:52.708Z,1820.00
2019-05-17T05:23:51.799Z,1852.00
2019-05-17T05:24:52.522Z,1828.00
2019-05-17T05:25:52.214Z,1772.00
2019-05-17T05:26:51.824Z,1732.00
2019-05-17T05:27:51.655Z,1704.00
2019-05-17T05:28:52.817Z,1660.00
2019-05-17T05:29:52.132Z,1612.00
2019-05-17T05:30:52.676Z,1560.00
2019-05-17T05:31:51.782Z,1508.00
2019-05-17T05:32:52.503Z,1520.00
2019-05-17T05:33:52.229Z,1576.00
2019-05-17T05:34:51.999Z,1776.00
2019-05-17T05:35:51.694Z,1892.00
2019-05-17T05:36:52.496Z,2060.00
2019-05-17T05:37:52.560Z,2288.00
2019-05-17T05:38:51.573Z,2388.00
2019-05-17T05:39:53.951Z,2408.00
2019-05-17T05:40:52.163Z,2580.00
2019-05-17T05:41:51.863Z,2592.00
2019-05-17T05:42:51.595Z,2864.00
2019-05-17T05:43:52.579Z,2964.00
2019-05-17T05:44:52.231Z,3176.00
2019-05-17T05:45:53.466Z,3760.00
2019-05-17T05:46:51.523Z,4100.00
2019-05-17T05:47:52.157Z,4208.00
2019-05-17T05:48:52.182Z,4268.00
2019-05-17T05:49:52.054Z,4152.00
2019-05-17T05:50:52.115Z,4280.00
2019-05-17T05:51:52.325Z,4532.00
2019-05-17T05:52:52.432Z,4724.00
2019-05-17T05:53:52.218Z,5060.00
2019-05-17T05:54:52.077Z,5352.00
2019-05-17T05:55:51.837Z,5756.00
2019-05-17T05:56:52.438Z,5608.00
2019-05-17T05:57:52.184Z,5344.00
2019-05-17T05:58:52.275Z,5292.00
2019-05-17T05:59:51.799Z,5728.00
2019-05-17T06:00:53.109Z,5988.00
2019-05-17T06:01:52.503Z,6000.00
2019-05-17T06:02:52.336Z,6032.00
2019-05-17T06:03:52.016Z,5908.00
2019-05-17T06:04:51.928Z,5800.00
2019-05-17T06:05:52.515Z,5928.00
2019-05-17T06:06:52.196Z,5828.00
2019-05-17T06:07:52.190Z,6084.00
2019-05-17T06:08:52.107Z,6184.00
2019-05-17T06:09:51.870Z,6340.00
2019-05-17T06:10:53.166Z,6244.00
2019-05-17T06:11:51.995Z,5968.00
2019-05-17T06:12:51.808Z,6088.00
2019-05-17T06:13:52.447Z,6084.00
2019-05-17T06:14:52.351Z,6028.00
2019-05-17T06:15:51.868Z,5516.00
2019-05-17T06:16:52.145Z,5096.00
2019-05-17T06:17:51.992Z,5164.00
2019-05-17T06:18:51.738Z,5912.00
2019-05-17T06:19:51.840Z,6408.00
2019-05-17T06:20:52.412Z,6200.00
2019-05-17T06:21:52.062Z,5892.00
2019-05-17T06:22:51.861Z,5712.00
2019-05-17T06:23:51.770Z,5604.00
2019-05-17T06:24:52.122Z,5700.00
2019-05-17T06:25:52.224Z,5588.00
2019-05-17T06:26:52.542Z,5416.00
2019-05-17T06:27:52.108Z,5616.00
2019-05-17T06:28:51.935Z,5556.00
2019-05-17T06:29:51.871Z,5372.00
2019-05-17T06:30:52.208Z,5420.00
2019-05-17T06:31:52.022Z,5328.00
2019-05-17T06:32:51.919Z,5436.00
2019-05-17T06:33:52.452Z,5484.00
2019-05-17T06:34:51.955Z,5444.00
2019-05-17T06:35:52.511Z,5352.00
2019-05-17T06:36:52.809Z,5380.00
2019-05-17T06:37:53.601Z,5460.00
2019-05-17T06:38:52.740Z,5680.00
2019-05-17T06:39:52.621Z,5964.00
2019-05-17T06:40:52.454Z,6252.00
2019-05-17T06:41:52.268Z,6504.00
2019-05-17T06:42:52.540Z,6560.00
2019-05-17T06:43:52.445Z,6600.00
2019-05-17T06:44:52.419Z,6968.00
2019-05-17T06:45:52.374Z,7512.00
2019-05-17T06:46:52.157Z,7708.00
2019-05-17T06:47:52.171Z,7892.00
2019-05-17T06:48:52.980Z,8256.00
2019-05-17T06:49:53.434Z,8444.00
2019-05-17T06:50:52.229Z,8556.00
2019-05-17T06:51:52.238Z,8472.00
2019-05-17T06:52:53.269Z,8512.00
2019-05-17T06:53:52.505Z,8592.00
2019-05-17T06:54:52.583Z,8680.00
2019-05-17T06:55:53.404Z,9044.00
2019-05-17T06:56:52.634Z,9672.00
2019-05-17T06:57:52.783Z,9372.00
2019-05-17T06:58:52.359Z,9072.00
2019-05-17T06:59:52.529Z,9464.00
2019-05-17T07:00:52.460Z,9024.00
2019-05-17T07:01:52.412Z,7424.00
2019-05-17T07:02:52.431Z,5992.00
2019-05-17T07:03:52.447Z,5864.00
2019-05-17T07:04:52.459Z,6332.00
2019-05-17T07:05:52.476Z,6040.00
2019-05-17T07:06:52.495Z,5180.00
2019-05-17T07:07:52.515Z,5148.00
2019-05-17T07:08:52.527Z,5456.00
2019-05-17T07:09:52.641Z,5332.00
2019-05-17T07:10:52.565Z,5500.00
2019-05-17T07:11:52.582Z,5436.00
2019-05-17T07:12:58.584Z,5652.00
2019-05-17T07:13:52.611Z,5272.00
2019-05-17T07:14:52.630Z,5320.00
2019-05-17T07:15:52.647Z,5284.00
2019-05-17T07:16:52.662Z,5592.00
2019-05-17T07:17:52.683Z,5888.00
2019-05-17T07:18:52.699Z,6068.00
2019-05-17T07:19:52.715Z,5376.00
2019-05-17T07:20:52.733Z,5412.00
2019-05-17T07:21:52.747Z,4916.00
2019-05-17T07:22:52.766Z,4940.00
2019-05-17T07:23:52.787Z,4708.00
2019-05-17T07:24:52.806Z,4560.00
2019-05-17T07:25:53.034Z,4108.00
2019-05-17T07:26:52.833Z,4000.00
2019-05-17T07:27:52.851Z,4316.00
2019-05-17T07:28:52.876Z,4096.00
2019-05-17T07:29:52.887Z,4048.00
2019-05-17T07:30:52.909Z,4364.00
2019-05-17T07:31:52.916Z,4452.00
2019-05-17T07:32:52.941Z,4568.00
2019-05-17T07:33:53.070Z,5232.00
2019-05-17T07:34:52.986Z,4644.00
2019-05-17T07:35:53.026Z,4524.00
2019-05-17T07:36:53.003Z,4816.00
2019-05-17T07:37:53.021Z,4676.00
2019-05-17T07:38:53.045Z,5284.00
2019-05-17T07:40:01.087Z,4944.00
2019-05-17T07:40:53.070Z,5292.00
2019-05-17T07:41:53.097Z,5992.00
2019-05-17T07:43:06.678Z,6732.00
2019-05-17T07:43:53.132Z,7252.00
2019-05-17T07:44:53.266Z,7408.00
2019-05-17T07:45:53.168Z,7124.00
2019-05-17T07:46:53.178Z,7804.00
2019-05-17T07:47:53.190Z,7668.00
2019-05-17T07:48:53.204Z,7096.00
2019-05-17T07:49:54.654Z,7680.00
2019-05-17T07:50:53.245Z,7864.00
2019-05-17T07:51:53.264Z,7388.00
2019-05-17T07:52:53.285Z,7132.00
2019-05-17T07:53:53.296Z,7388.00
2019-05-17T07:54:53.439Z,7672.00
2019-05-17T07:55:53.335Z,8588.00
2019-05-17T07:56:53.345Z,8748.00
2019-05-17T07:57:53.362Z,8708.00
2019-05-17T07:58:53.378Z,8404.00
2019-05-17T07:59:53.393Z,8380.00
2019-05-17T08:00:53.418Z,8120.00
2019-05-17T08:01:53.424Z,7816.00
2019-05-17T08:02:53.452Z,7820.00
2019-05-17T08:03:53.475Z,7732.00
2019-05-17T08:04:53.488Z,7540.00
2019-05-17T08:05:53.506Z,8028.00
2019-05-17T08:06:53.527Z,7760.00
2019-05-17T08:07:53.534Z,7456.00
2019-05-17T08:08:53.636Z,7592.00
2019-05-17T08:09:53.566Z,7644.00
2019-05-17T08:10:53.588Z,7528.00
2019-05-17T08:11:53.602Z,7772.00
2019-05-17T08:12:53.628Z,8216.00
2019-05-17T08:13:53.648Z,7984.00
2019-05-17T08:14:53.654Z,7216.00
2019-05-17T08:15:53.672Z,7480.00
2019-05-17T08:16:53.697Z,7868.00
2019-05-17T08:17:53.712Z,7608.00
2019-05-17T08:18:53.721Z,7356.00
2019-05-17T08:19:53.740Z,7192.00
2019-05-17T08:20:53.763Z,7528.00
2019-05-17T08:21:53.788Z,7452.00
2019-05-17T08:22:53.804Z,7384.00
2019-05-17T08:23:53.818Z,7660.00
2019-05-17T08:24:53.840Z,7460.00
2019-05-17T08:25:56.331Z,7104.00
2019-05-17T08:26:53.976Z,7260.00
2019-05-17T08:27:53.898Z,7636.00
2019-05-17T08:28:53.926Z,8292.00
2019-05-17T08:29:53.911Z,8124.00
2019-05-17T08:30:53.932Z,7576.00
2019-05-17T08:31:53.958Z,7004.00
2019-05-17T08:32:53.962Z,7184.00
2019-05-17T08:33:53.989Z,7360.00
2019-05-17T08:34:54.012Z,7756.00
2019-05-17T08:35:54.030Z,8328.00
2019-05-17T08:36:54.039Z,8748.00
2019-05-17T08:37:54.071Z,8532.00
2019-05-17T08:38:54.072Z,7924.00
2019-05-17T08:39:54.114Z,7708.00
2019-05-17T08:40:54.102Z,7524.00
2019-05-17T08:41:54.315Z,6956.00
2019-05-17T08:42:54.140Z,6948.00
2019-05-17T08:43:54.169Z,7116.00
2019-05-17T08:44:54.185Z,7136.00
2019-05-17T08:45:54.188Z,7076.00
2019-05-17T08:46:54.208Z,7436.00
2019-05-17T08:47:54.230Z,7924.00
2019-05-17T08:48:54.238Z,7920.00
2019-05-17T08:49:54.261Z,7296.00
2019-05-17T08:50:54.276Z,6552.00
2019-05-17T08:51:54.293Z,6928.00
2019-05-17T08:52:54.309Z,6996.00
2019-05-17T08:53:54.327Z,6780.00
2019-05-17T08:54:54.348Z,7140.00
2019-05-17T08:55:54.365Z,7412.00
2019-05-17T08:56:54.379Z,6720.00
2019-05-17T08:57:54.406Z,6352.00
2019-05-17T08:58:54.445Z,6360.00
2019-05-17T08:59:54.432Z,6432.00
2019-05-17T09:00:54.449Z,6132.00
2019-05-17T09:01:54.474Z,6148.00
2019-05-17T09:02:54.486Z,6492.00
2019-05-17T09:03:54.504Z,6448.00
2019-05-17T09:04:54.520Z,6996.00
2019-05-17T09:05:54.537Z,7708.00
2019-05-17T09:06:54.553Z,8216.00
2019-05-17T09:07:54.581Z,8012.00
2019-05-17T09:08:54.611Z,7588.00
2019-05-17T09:09:54.607Z,6928.00
2019-05-17T09:10:54.625Z,6768.00
2019-05-17T09:11:54.645Z,7112.00
2019-05-17T09:12:54.661Z,8008.00
2019-05-17T09:13:58.513Z,8372.00
2019-05-17T09:14:54.702Z,8308.00
2019-05-17T09:15:54.721Z,8412.00
2019-05-17T09:16:54.732Z,7444.00
2019-05-17T09:17:54.751Z,6780.00
2019-05-17T09:18:54.771Z,6308.00
2019-05-17T09:19:54.789Z,7196.00
2019-05-17T09:20:54.803Z,8432.00
2019-05-17T09:21:54.822Z,8324.00
2019-05-17T09:22:54.844Z,6976.00
2019-05-17T09:23:54.868Z,6492.00
2019-05-17T09:24:54.886Z,6484.00
2019-05-17T09:25:54.904Z,6052.00
2019-05-17T09:26:54.912Z,6088.00
2019-05-17T09:27:54.932Z,6620.00
2019-05-17T09:28:54.948Z,6360.00
2019-05-17T09:29:54.967Z,5888.00
2019-05-17T09:30:54.984Z,6268.00
2019-05-17T09:31:55.006Z,8052.00
2019-05-17T09:32:55.032Z,8916.00
2019-05-17T09:33:55.039Z,8652.00
2019-05-17T09:34:55.060Z,7336.00
2019-05-17T09:35:55.081Z,6564.00
2019-05-17T09:36:55.096Z,6152.00
2019-05-17T09:37:55.113Z,6676.00
2019-05-17T09:38:55.130Z,7220.00
2019-05-17T09:39:55.152Z,7856.00
2019-05-17T09:40:55.164Z,8500.00
2019-05-17T09:41:55.190Z,8480.00
2019-05-17T09:42:55.206Z,7956.00
2019-05-17T09:44:07.755Z,7968.00
2019-05-17T09:44:55.237Z,7748.00
2019-05-17T09:45:55.254Z,7580.00
2019-05-17T09:46:55.271Z,7744.00
2019-05-17T09:47:55.293Z,8308.00
2019-05-17T09:48:55.316Z,8172.00
2019-05-17T09:49:55.324Z,8232.00
2019-05-17T09:50:55.344Z,9244.00
2019-05-17T09:51:55.363Z,9328.00
2019-05-17T09:52:55.379Z,9408.00
2019-05-17T09:53:55.396Z,9464.00
2019-05-17T09:54:55.416Z,9036.00
2019-05-17T09:55:55.436Z,8524.00
2019-05-17T09:56:55.455Z,8520.00
2019-05-17T09:57:55.472Z,8276.00
2019-05-17T09:58:55.491Z,7764.00
2019-05-17T09:59:56.000Z,7812.00
2019-05-17T10:00:55.523Z,7268.00
2019-05-17T10:01:55.546Z,6760.00
2019-05-17T10:02:55.560Z,6596.00
2019-05-17T10:03:55.578Z,6820.00
2019-05-17T10:04:55.593Z,6948.00
2019-05-17T10:05:55.613Z,7824.00
2019-05-17T10:06:55.632Z,8936.00
2019-05-17T10:07:55.652Z,9440.00
2019-05-17T10:08:55.670Z,9196.00
2019-05-17T10:09:55.710Z,8688.00
2019-05-17T10:11:08.129Z,8712.00
2019-05-17T10:11:55.722Z,8980.00
2019-05-17T10:12:55.739Z,9452.00
2019-05-17T10:13:58.357Z,8944.00
2019-05-17T10:14:55.781Z,8212.00
2019-05-17T10:15:55.811Z,8048.00
2019-05-17T10:16:55.812Z,7532.00
2019-05-17T10:17:55.833Z,7128.00
2019-05-17T10:18:55.849Z,7004.00
2019-05-17T10:19:55.873Z,7320.00
2019-05-17T10:20:56.107Z,7548.00
2019-05-17T10:21:55.904Z,7472.00
2019-05-17T10:22:55.920Z,7372.00
2019-05-17T10:23:55.939Z,8148.00
2019-05-17T10:24:55.959Z,9280.00
2019-05-17T10:25:55.981Z,9716.00
2019-05-17T10:26:55.997Z,9684.00
2019-05-17T10:27:56.020Z,9784.00
2019-05-17T10:28:56.031Z,9324.00
2019-05-17T10:29:56.048Z,9464.00
2019-05-17T10:30:56.066Z,9836.00
2019-05-17T10:31:56.092Z,10476.00
2019-05-17T10:32:56.104Z,10468.00
2019-05-17T10:33:58.297Z,10180.00
2019-05-17T10:34:56.142Z,9852.00
2019-05-17T10:35:56.161Z,9432.00
2019-05-17T10:36:56.177Z,9296.00
2019-05-17T10:37:56.194Z,9244.00
2019-05-17T10:38:56.213Z,9376.00
2019-05-17T10:39:56.238Z,9844.00
2019-05-17T10:40:56.247Z,10372.00
2019-05-17T10:41:56.269Z,10304.00
2019-05-17T10:42:56.286Z,9984.00
2019-05-17T10:43:56.308Z,9768.00
2019-05-17T10:44:56.341Z,9432.00
2019-05-17T10:45:56.343Z,9108.00
2019-05-17T10:46:56.361Z,9100.00
2019-05-17T10:47:56.378Z,8716.00
2019-05-17T10:48:56.399Z,8460.00
2019-05-17T10:49:56.418Z,8500.00
2019-05-17T10:50:56.434Z,8572.00
2019-05-17T10:51:56.456Z,8644.00
2019-05-17T10:52:56.474Z,8964.00
2019-05-17T10:53:56.493Z,9324.00
2019-05-17T10:54:56.508Z,9528.00
2019-05-17T10:55:56.526Z,10420.00
2019-05-17T10:56:56.550Z,10456.00
2019-05-17T10:57:56.561Z,10012.00
2019-05-17T10:58:56.584Z,9912.00
2019-05-17T10:59:56.599Z,10344.00
2019-05-17T11:00:56.621Z,10284.00
2019-05-17T11:01:56.691Z,9100.00
2019-05-17T11:02:56.737Z,7640.00
2019-05-17T11:03:56.675Z,6576.00
2019-05-17T11:04:56.692Z,6412.00
2019-05-17T11:05:56.724Z,6488.00
2019-05-17T11:06:56.731Z,6464.00
2019-05-17T11:07:56.746Z,6580.00
2019-05-17T11:08:56.773Z,6912.00
2019-05-17T11:09:56.783Z,7276.00
2019-05-17T11:10:56.801Z,7696.00
2019-05-17T11:11:56.821Z,8360.00
2019-05-17T11:12:56.838Z,9324.00
2019-05-17T11:13:56.855Z,10056.00
2019-05-17T11:15:10.490Z,10176.00
2019-05-17T11:15:56.895Z,10132.00
2019-05-17T11:16:56.913Z,10500.00
2019-05-17T11:17:56.932Z,11468.00
2019-05-17T11:18:56.982Z,12052.00
2019-05-17T11:19:56.971Z,12104.00
2019-05-17T11:20:56.985Z,11960.00
2019-05-17T11:21:57.003Z,11584.00
2019-05-17T11:22:57.033Z,10392.00
2019-05-17T11:23:57.044Z,9684.00
2019-05-17T11:24:57.067Z,9504.00
2019-05-17T11:25:57.096Z,9672.00
2019-05-17T11:26:57.097Z,10000.00
2019-05-17T11:27:57.120Z,10428.00
2019-05-17T11:28:57.135Z,11108.00
2019-05-17T11:29:57.150Z,11544.00
2019-05-17T11:30:57.170Z,11332.00
2019-05-17T11:31:57.193Z,11116.00
2019-05-17T11:32:57.220Z,10552.00
2019-05-17T11:33:57.233Z,9720.00
2019-05-17T11:34:57.249Z,9132.00
2019-05-17T11:35:57.263Z,8912.00
2019-05-17T11:36:57.288Z,9252.00
2019-05-17T11:37:57.301Z,10392.00
2019-05-17T11:38:57.324Z,11656.00
2019-05-17T11:39:57.346Z,12332.00
2019-05-17T11:40:57.358Z,12448.00
2019-05-17T11:41:57.376Z,12280.00
2019-05-17T11:42:57.451Z,11712.00
2019-05-17T11:43:57.425Z,11300.00
2019-05-17T11:44:57.446Z,10844.00
2019-05-17T11:45:57.456Z,10560.00
2019-05-17T11:46:57.472Z,10392.00
2019-05-17T11:47:57.503Z,10224.00
2019-05-17T11:48:57.522Z,9920.00
2019-05-17T11:49:57.528Z,9984.00
2019-05-17T11:50:57.548Z,10308.00
2019-05-17T11:51:57.572Z,10596.00
2019-05-17T11:52:57.604Z,10632.00
2019-05-17T11:53:57.608Z,10512.00
2019-05-17T11:54:57.625Z,10276.00
2019-05-17T11:55:57.647Z,9868.00
2019-05-17T11:56:57.660Z,9416.00
2019-05-17T11:57:57.683Z,9132.00
2019-05-17T11:58:57.709Z,8344.00
2019-05-17T11:59:57.736Z,7488.00
2019-05-17T12:00:57.746Z,7384.00
2019-05-17T12:01:57.772Z,7780.00
2019-05-17T12:02:57.778Z,8160.00
2019-05-17T12:03:57.886Z,8480.00
2019-05-17T12:04:58.003Z,8656.00
2019-05-17T12:05:57.868Z,9000.00
2019-05-17T12:06:57.866Z,9836.00
2019-05-17T12:07:57.926Z,10120.00
2019-05-17T12:08:57.909Z,9984.00
2019-05-17T12:09:57.927Z,9612.00
2019-05-17T12:10:58.068Z,9148.00
2019-05-17T12:11:57.970Z,8952.00
2019-05-17T12:12:57.976Z,8696.00
2019-05-17T12:13:58.009Z,8904.00
2019-05-17T12:14:58.661Z,8884.00
2019-05-17T12:15:58.050Z,8408.00
2019-05-17T12:16:58.075Z,7728.00
2019-05-17T12:17:58.142Z,7240.00
2019-05-17T12:18:58.083Z,7284.00
2019-05-17T12:19:58.107Z,7400.00
2019-05-17T12:20:58.124Z,8132.00
2019-05-17T12:21:58.150Z,9436.00
2019-05-17T12:22:58.465Z,10320.00
2019-05-17T12:23:58.189Z,10588.00
2019-05-17T12:24:58.202Z,10000.00